createdAt,value
2019-05-30T00:01:38.008Z,12.10
2019-05-30T00:04:06.682Z,12.10
2019-05-30T00:06:35.465Z,12.00
2019-05-30T00:09:06.365Z,11.90
2019-05-30T00:11:35.035Z,11.90
2019-05-30T00:14:04.692Z,11.80
2019-05-30T00:16:33.646Z,11.80
2019-05-30T00:19:05.644Z,11.80
2019-05-30T00:21:34.332Z,11.70
2019-05-30T00:24:04.081Z,11.70
2019-05-30T00:26:33.038Z,11.70
2019-05-30T00:29:02.572Z,11.70
2019-05-30T00:31:31.397Z,11.60
2019-05-30T00:34:00.114Z,11.60
2019-05-30T00:36:28.817Z,11.50
2019-05-30T00:38:57.727Z,11.50
2019-05-30T00:41:26.372Z,11.50
2019-05-30T00:43:55.898Z,11.50
2019-05-30T00:46:24.667Z,11.50
2019-05-30T00:48:53.338Z,11.60
2019-05-30T00:51:22.082Z,11.60
2019-05-30T00:53:50.770Z,11.60
2019-05-30T00:56:19.527Z,11.50
2019-05-30T00:58:48.264Z,11.50
2019-05-30T01:01:16.997Z,11.50
2019-05-30T01:03:45.738Z,11.50
2019-05-30T01:06:14.484Z,11.50
2019-05-30T01:08:43.162Z,11.60
2019-05-30T01:11:11.912Z,11.50
2019-05-30T01:13:40.675Z,11.50
2019-05-30T01:16:09.354Z,11.40
2019-05-30T01:18:38.066Z,11.40
2019-05-30T01:21:07.413Z,11.30
2019-05-30T01:23:37.970Z,11.30
2019-05-30T01:26:07.615Z,11.40
2019-05-30T01:28:36.414Z,11.40
2019-05-30T01:31:09.602Z,11.30
2019-05-30T01:33:35.446Z,11.30
2019-05-30T01:36:04.199Z,11.30
2019-05-30T01:38:32.881Z,11.30
2019-05-30T01:41:02.515Z,11.30
2019-05-30T01:43:31.423Z,11.20
2019-05-30T01:46:00.176Z,11.20
2019-05-30T01:48:28.887Z,11.20
2019-05-30T01:50:58.321Z,11.10
2019-05-30T01:53:27.187Z,11.10
2019-05-30T01:55:55.947Z,11.10
2019-05-30T01:58:24.651Z,11.10
2019-05-30T02:00:53.389Z,11.10
2019-05-30T02:03:22.095Z,11.10
2019-05-30T02:05:50.771Z,11.00
2019-05-30T02:08:19.523Z,11.00
2019-05-30T02:10:48.203Z,10.90
2019-05-30T02:13:16.905Z,10.90
2019-05-30T02:15:45.651Z,10.90
2019-05-30T02:18:14.330Z,10.80
2019-05-30T02:20:43.069Z,10.80
2019-05-30T02:23:11.739Z,10.70
2019-05-30T02:25:40.420Z,10.60
2019-05-30T02:28:10.272Z,10.60
2019-05-30T02:30:39.230Z,10.60
2019-05-30T02:33:09.710Z,10.70
2019-05-30T02:35:38.254Z,10.60
2019-05-30T02:38:07.428Z,10.70
2019-05-30T02:40:36.810Z,10.70
2019-05-30T02:43:07.375Z,10.70
2019-05-30T02:45:35.850Z,10.70
2019-05-30T02:48:05.464Z,10.70
2019-05-30T02:50:34.654Z,10.70
2019-05-30T02:53:03.730Z,10.70
2019-05-30T02:55:32.989Z,10.70
2019-05-30T02:58:03.553Z,10.70
2019-05-30T03:00:36.482Z,10.70
2019-05-30T03:03:06.716Z,10.70
2019-05-30T03:05:35.721Z,10.70
2019-05-30T03:08:06.519Z,10.60
2019-05-30T03:10:34.933Z,10.70
2019-05-30T03:13:04.197Z,10.70
2019-05-30T03:15:34.294Z,10.70
2019-05-30T03:18:04.459Z,10.70
2019-05-30T03:20:33.383Z,10.70
2019-05-30T03:23:03.159Z,10.70
2019-05-30T03:25:32.454Z,10.70
2019-05-30T03:28:02.639Z,10.80
2019-05-30T03:30:31.616Z,10.80
2019-05-30T03:33:17.144Z,10.70
2019-05-30T03:35:40.320Z,10.60
2019-05-30T03:38:01.140Z,10.70
2019-05-30T03:40:31.887Z,10.70
2019-05-30T03:43:00.215Z,10.70
2019-05-30T03:45:28.956Z,10.70
2019-05-30T03:48:00.767Z,10.70
2019-05-30T03:50:29.517Z,10.70
2019-05-30T03:52:58.229Z,10.70
2019-05-30T03:55:26.891Z,10.70
2019-05-30T03:57:58.764Z,10.60
2019-05-30T04:00:33.137Z,10.50
2019-05-30T04:03:11.666Z,10.50
2019-05-30T04:05:51.741Z,10.50
2019-05-30T04:08:20.492Z,10.50
2019-05-30T04:10:50.256Z,10.50
2019-05-30T04:13:24.384Z,10.50
2019-05-30T04:15:53.043Z,10.50
2019-05-30T04:18:21.719Z,10.50
2019-05-30T04:20:50.460Z,10.50
2019-05-30T04:23:19.610Z,10.60
2019-05-30T04:25:48.475Z,10.60
2019-05-30T04:28:18.676Z,10.70
2019-05-30T04:30:47.633Z,10.80
2019-05-30T04:33:29.481Z,10.80
2019-05-30T04:35:46.687Z,10.80
2019-05-30T04:38:17.104Z,10.80
2019-05-30T04:40:45.787Z,10.90
2019-05-30T04:43:15.488Z,11.10
2019-05-30T04:45:44.483Z,11.30
2019-05-30T04:48:14.110Z,11.30
2019-05-30T04:50:43.104Z,11.40
2019-05-30T04:53:12.256Z,11.50
2019-05-30T04:55:41.052Z,11.50
2019-05-30T04:58:11.070Z,11.50
2019-05-30T05:00:40.091Z,11.50
2019-05-30T05:03:08.841Z,11.50
2019-05-30T05:05:37.528Z,11.50
2019-05-30T05:08:06.200Z,11.60
2019-05-30T05:10:34.903Z,11.60
2019-05-30T05:13:03.587Z,11.60
2019-05-30T05:15:32.333Z,11.60
2019-05-30T05:18:01.003Z,11.60
2019-05-30T05:20:29.682Z,11.60
2019-05-30T05:22:58.417Z,11.70
2019-05-30T05:25:27.089Z,11.70
2019-05-30T05:27:55.767Z,11.70
2019-05-30T05:30:24.496Z,11.80
2019-05-30T05:32:53.151Z,11.90
2019-05-30T05:35:23.003Z,11.90
2019-05-30T05:37:51.891Z,11.90
2019-05-30T05:40:20.560Z,12.00
2019-05-30T05:42:49.276Z,12.10
2019-05-30T05:45:18.306Z,12.10
2019-05-30T05:47:47.087Z,12.20
2019-05-30T05:50:16.756Z,12.20
2019-05-30T05:52:45.693Z,12.20
2019-05-30T05:55:14.431Z,12.30
2019-05-30T05:57:43.111Z,12.30
2019-05-30T06:00:11.778Z,12.40
2019-05-30T06:02:40.501Z,12.40
2019-05-30T06:05:09.483Z,12.50
2019-05-30T06:07:38.227Z,12.50
2019-05-30T06:10:06.911Z,12.60
2019-05-30T06:12:35.602Z,12.60
2019-05-30T06:15:08.327Z,12.60
2019-05-30T06:17:36.989Z,12.70
2019-05-30T06:20:06.436Z,12.70
2019-05-30T06:22:35.220Z,12.70
2019-05-30T06:25:05.748Z,12.80
2019-05-30T06:27:34.453Z,12.90
2019-05-30T06:30:03.327Z,13.00
2019-05-30T06:32:32.065Z,12.90
2019-05-30T06:35:00.741Z,12.90
2019-05-30T06:37:29.418Z,12.90
2019-05-30T06:39:58.168Z,13.00
2019-05-30T06:42:28.162Z,13.00
2019-05-30T06:44:56.921Z,13.10
2019-05-30T06:47:26.326Z,13.20
2019-05-30T06:49:55.016Z,13.20
2019-05-30T06:52:24.871Z,13.20
2019-05-30T06:54:53.736Z,13.20
2019-05-30T06:57:23.122Z,13.20
2019-05-30T06:59:52.018Z,13.20
2019-05-30T07:02:22.121Z,13.30
2019-05-30T07:04:52.718Z,13.40
2019-05-30T07:07:22.534Z,13.40
2019-05-30T07:09:51.463Z,13.50
2019-05-30T07:12:20.198Z,13.40
2019-05-30T07:14:48.876Z,13.50
2019-05-30T07:17:17.561Z,13.60
2019-05-30T07:19:46.266Z,13.70
2019-05-30T07:22:14.940Z,13.70
2019-05-30T07:24:43.678Z,13.70
2019-05-30T07:27:12.357Z,13.80
2019-05-30T07:29:41.040Z,13.80
2019-05-30T07:32:13.191Z,13.80
2019-05-30T07:34:40.088Z,13.80
2019-05-30T07:37:08.826Z,13.80
2019-05-30T07:39:37.706Z,13.70
2019-05-30T07:42:06.921Z,13.80
2019-05-30T07:44:35.928Z,13.80
2019-05-30T07:47:04.607Z,13.80
2019-05-30T07:49:34.553Z,13.80
2019-05-30T07:52:03.327Z,13.90
2019-05-30T07:54:33.026Z,13.90
2019-05-30T07:57:02.065Z,14.00
2019-05-30T07:59:30.738Z,14.00
2019-05-30T08:01:59.434Z,14.10
2019-05-30T08:04:29.389Z,14.10
2019-05-30T08:06:58.192Z,14.10
2019-05-30T08:09:26.971Z,14.10
2019-05-30T08:11:55.594Z,14.20
2019-05-30T08:14:24.267Z,14.20
2019-05-30T08:16:52.976Z,14.20
2019-05-30T08:19:21.656Z,14.30
2019-05-30T08:21:50.400Z,14.40
2019-05-30T08:24:19.074Z,14.40
2019-05-30T08:26:47.750Z,14.40
2019-05-30T08:29:16.454Z,14.40
2019-05-30T08:31:45.138Z,14.50
2019-05-30T08:34:13.870Z,14.50
2019-05-30T08:36:42.542Z,14.50
2019-05-30T08:39:11.219Z,14.50
2019-05-30T08:41:39.947Z,14.60
2019-05-30T08:44:08.618Z,14.50
2019-05-30T08:46:37.951Z,14.70
2019-05-30T08:49:06.701Z,14.70
2019-05-30T08:51:36.268Z,14.80
2019-05-30T08:54:05.110Z,14.80
2019-05-30T08:56:34.525Z,14.90
2019-05-30T08:59:03.255Z,14.90
2019-05-30T09:01:31.975Z,15.00
2019-05-30T09:04:00.642Z,15.00
2019-05-30T09:06:29.402Z,15.00
2019-05-30T09:08:58.095Z,14.90
2019-05-30T09:11:26.763Z,15.00
2019-05-30T09:13:55.498Z,15.00
2019-05-30T09:16:24.181Z,15.10
2019-05-30T09:18:52.838Z,15.10
2019-05-30T09:21:21.660Z,15.20
2019-05-30T09:23:50.325Z,15.20
2019-05-30T09:26:19.088Z,15.30
2019-05-30T09:28:48.275Z,15.30
2019-05-30T09:31:17.127Z,15.30
2019-05-30T09:33:46.662Z,15.30
2019-05-30T09:36:15.398Z,15.30
2019-05-30T09:38:45.309Z,15.30
2019-05-30T09:41:14.200Z,15.30
2019-05-30T09:43:43.351Z,15.40
2019-05-30T09:46:13.549Z,15.40
2019-05-30T09:48:43.227Z,15.40
2019-05-30T09:51:12.358Z,15.40
2019-05-30T09:53:41.266Z,15.40
2019-05-30T09:56:11.119Z,15.50
2019-05-30T09:58:39.821Z,15.60
2019-05-30T10:01:10.070Z,15.50
2019-05-30T10:03:38.904Z,15.60
2019-05-30T10:06:07.583Z,15.60
2019-05-30T10:08:36.263Z,15.60
2019-05-30T10:11:05.008Z,15.60
2019-05-30T10:13:33.691Z,15.60
2019-05-30T10:16:02.367Z,15.60
2019-05-30T10:18:31.074Z,15.60
2019-05-30T10:20:59.753Z,15.60
2019-05-30T10:23:28.486Z,15.50
2019-05-30T10:25:57.501Z,15.60
2019-05-30T10:28:26.445Z,15.60
2019-05-30T10:30:58.980Z,15.70
2019-05-30T10:33:25.476Z,15.70
2019-05-30T10:35:54.216Z,15.90
2019-05-30T10:38:22.905Z,15.80
2019-05-30T10:40:52.332Z,15.90
2019-05-30T10:43:21.187Z,15.90
2019-05-30T10:45:51.142Z,15.90
2019-05-30T10:48:20.951Z,15.90
2019-05-30T10:50:50.521Z,15.90
2019-05-30T10:53:19.258Z,15.90
2019-05-30T10:55:49.851Z,15.90
2019-05-30T10:58:18.777Z,16.00
2019-05-30T11:00:57.735Z,16.00
2019-05-30T11:03:27.583Z,16.10
2019-05-30T11:06:17.592Z,16.10
2019-05-30T11:08:47.536Z,16.20
2019-05-30T11:11:16.640Z,16.30
2019-05-30T11:13:45.349Z,16.30
2019-05-30T11:16:14.023Z,16.40
2019-05-30T11:18:42.929Z,16.40
2019-05-30T11:21:11.633Z,16.30
2019-05-30T11:23:40.303Z,16.40
2019-05-30T11:26:09.010Z,16.40
2019-05-30T11:28:37.681Z,16.40
2019-05-30T11:31:06.439Z,16.40
2019-05-30T11:33:35.108Z,16.40
2019-05-30T11:36:03.796Z,16.50
2019-05-30T11:38:32.512Z,16.50
2019-05-30T11:41:01.189Z,16.50
2019-05-30T11:43:29.913Z,16.40
2019-05-30T11:45:59.762Z,16.50
2019-05-30T11:48:28.567Z,16.50
2019-05-30T11:50:57.931Z,16.60
2019-05-30T11:53:26.759Z,16.80
2019-05-30T11:55:56.215Z,16.90
2019-05-30T11:58:24.991Z,17.00
2019-05-30T12:00:54.662Z,17.10
2019-05-30T12:03:23.485Z,17.10
2019-05-30T12:05:52.488Z,17.20
2019-05-30T12:08:21.389Z,17.30
2019-05-30T12:10:51.101Z,17.40
2019-05-30T12:13:19.935Z,17.50
2019-05-30T12:15:48.648Z,17.50
2019-05-30T12:18:17.310Z,17.60
2019-05-30T12:20:46.054Z,17.60
2019-05-30T12:23:14.731Z,17.80
2019-05-30T12:25:43.411Z,17.70
2019-05-30T12:28:12.141Z,17.70
2019-05-30T12:30:55.362Z,17.70
2019-05-30T12:33:11.203Z,17.70
2019-05-30T12:35:39.873Z,17.70
2019-05-30T12:38:08.549Z,17.80
2019-05-30T12:40:37.256Z,17.90
2019-05-30T12:43:05.934Z,18.10
2019-05-30T12:45:34.677Z,18.20
2019-05-30T12:48:04.298Z,18.50
2019-05-30T12:50:33.085Z,18.70
2019-05-30T12:53:02.121Z,18.70
2019-05-30T12:55:30.977Z,18.80
2019-05-30T12:58:00.746Z,19.10
2019-05-30T13:00:31.284Z,19.40
2019-05-30T13:03:00.861Z,19.70
2019-05-30T13:05:29.772Z,20.20
2019-05-30T13:08:14.389Z,21.00
2019-05-30T13:10:28.865Z,21.70
2019-05-30T13:12:57.645Z,22.80
2019-05-30T13:15:26.320Z,24.50
2019-05-30T13:17:55.742Z,26.50
2019-05-30T13:20:25.404Z,27.90
2019-05-30T13:22:54.127Z,29.70
2019-05-30T13:25:22.815Z,30.90
2019-05-30T13:27:51.490Z,31.70
2019-05-30T13:30:20.235Z,31.90
2019-05-30T13:32:48.920Z,32.10
2019-05-30T13:35:17.694Z,33.10
2019-05-30T13:37:46.398Z,33.20
2019-05-30T13:40:25.022Z,34.80
2019-05-30T13:42:45.505Z,33.60
2019-05-30T13:45:14.177Z,33.80
2019-05-30T13:47:42.858Z,33.60
2019-05-30T13:50:14.237Z,34.00
2019-05-30T13:52:42.160Z,34.60
2019-05-30T13:55:10.930Z,33.90
2019-05-30T13:57:39.651Z,34.40
2019-05-30T14:00:08.331Z,34.70
2019-05-30T14:02:37.100Z,35.60
2019-05-30T14:05:08.323Z,36.10
2019-05-30T14:07:37.236Z,35.80
2019-05-30T14:10:08.436Z,36.50
2019-05-30T14:12:37.353Z,36.40
2019-05-30T14:15:10.610Z,36.90
2019-05-30T14:17:38.281Z,38.50
2019-05-30T14:20:07.079Z,38.60
2019-05-30T14:22:35.851Z,39.20
2019-05-30T14:25:05.560Z,39.70
2019-05-30T14:27:34.248Z,40.90
2019-05-30T14:30:04.571Z,40.40
2019-05-30T14:32:33.356Z,39.80
2019-05-30T14:35:02.384Z,38.70
2019-05-30T14:37:31.310Z,38.80
2019-05-30T14:40:00.000Z,38.60
2019-05-30T14:42:28.715Z,38.20
2019-05-30T14:44:57.394Z,37.80
2019-05-30T14:47:26.162Z,36.60
2019-05-30T14:49:54.849Z,35.80
2019-05-30T14:52:23.536Z,35.50
2019-05-30T14:54:52.284Z,35.80
2019-05-30T14:57:20.965Z,35.80
2019-05-30T14:59:49.708Z,35.90
2019-05-30T15:02:18.380Z,35.20
2019-05-30T15:04:47.077Z,34.70
2019-05-30T15:07:15.831Z,35.10
2019-05-30T15:09:44.499Z,34.80
2019-05-30T15:12:13.195Z,33.80
2019-05-30T15:14:41.910Z,33.20
2019-05-30T15:17:10.590Z,32.90
2019-05-30T15:19:39.343Z,32.60
2019-05-30T15:22:08.011Z,32.60
2019-05-30T15:24:36.688Z,32.20
2019-05-30T15:27:05.973Z,31.70
2019-05-30T15:29:34.805Z,31.70
2019-05-30T15:32:03.550Z,31.70
2019-05-30T15:34:32.225Z,31.00
2019-05-30T15:37:00.923Z,30.70
2019-05-30T15:39:32.865Z,30.00
2019-05-30T15:41:59.968Z,29.00
2019-05-30T15:44:28.696Z,28.40
2019-05-30T15:46:57.393Z,28.10
2019-05-30T15:49:26.071Z,28.00
2019-05-30T15:51:54.802Z,27.60
2019-05-30T15:54:23.491Z,27.20
2019-05-30T15:56:52.173Z,26.80
2019-05-30T15:59:20.936Z,26.50
2019-05-30T16:01:49.615Z,26.10
2019-05-30T16:04:18.367Z,26.10
2019-05-30T16:06:47.073Z,26.20
2019-05-30T16:09:16.700Z,26.20
2019-05-30T16:11:45.557Z,26.40
2019-05-30T16:14:15.238Z,26.40
2019-05-30T16:16:44.391Z,26.30
2019-05-30T16:19:20.165Z,26.30
2019-05-30T16:21:43.405Z,26.10
2019-05-30T16:24:12.415Z,25.90
2019-05-30T16:26:41.169Z,25.90
2019-05-30T16:29:09.849Z,25.70
2019-05-30T16:31:38.605Z,25.40
2019-05-30T16:34:07.287Z,25.20
2019-05-30T16:36:36.018Z,24.90
2019-05-30T16:39:06.597Z,24.70
2019-05-30T16:41:35.281Z,24.60
2019-05-30T16:44:04.056Z,24.70
2019-05-30T16:46:32.721Z,24.40
2019-05-30T16:49:01.470Z,24.40
2019-05-30T16:51:30.160Z,24.20
2019-05-30T16:53:58.840Z,24.30
2019-05-30T16:56:27.571Z,24.30
2019-05-30T16:58:56.243Z,24.40
2019-05-30T17:01:26.044Z,24.40
2019-05-30T17:03:54.889Z,24.40
2019-05-30T17:06:23.569Z,24.30
2019-05-30T17:08:52.317Z,24.30
2019-05-30T17:11:21.394Z,24.20
2019-05-30T17:13:50.193Z,23.70
2019-05-30T17:16:20.064Z,23.70
2019-05-30T17:18:48.889Z,23.50
2019-05-30T17:21:18.342Z,23.60
2019-05-30T17:23:47.337Z,23.40
2019-05-30T17:26:17.010Z,23.40
2019-05-30T17:28:45.857Z,23.40
2019-05-30T17:31:14.555Z,23.50
2019-05-30T17:33:43.287Z,23.40
2019-05-30T17:36:13.535Z,23.40
2019-05-30T17:38:42.232Z,23.30
2019-05-30T17:41:10.951Z,23.10
2019-05-30T17:43:39.629Z,23.10
2019-05-30T17:46:08.370Z,23.00
2019-05-30T17:48:37.041Z,22.90
2019-05-30T17:51:05.726Z,22.90
2019-05-30T17:53:34.519Z,22.80
2019-05-30T17:56:03.211Z,22.60
2019-05-30T17:58:31.875Z,22.60
2019-05-30T18:01:00.583Z,22.40
2019-05-30T18:03:30.541Z,22.30
2019-05-30T18:05:59.430Z,22.30
2019-05-30T18:08:28.946Z,22.20
2019-05-30T18:10:57.703Z,22.10
2019-05-30T18:13:27.076Z,22.10
2019-05-30T18:15:55.829Z,22.00
2019-05-30T18:18:25.330Z,21.90
2019-05-30T18:20:54.173Z,21.70
2019-05-30T18:23:23.475Z,21.60
2019-05-30T18:25:52.419Z,21.40
2019-05-30T18:28:21.492Z,21.40
2019-05-30T18:30:50.277Z,21.40
2019-05-30T18:33:19.026Z,21.40
2019-05-30T18:35:47.680Z,21.30
2019-05-30T18:38:16.446Z,21.20
2019-05-30T18:40:45.129Z,21.20
2019-05-30T18:43:13.836Z,21.00
2019-05-30T18:45:45.397Z,20.90
2019-05-30T18:48:14.072Z,20.60
2019-05-30T18:50:42.990Z,20.50
2019-05-30T18:53:11.673Z,20.40
2019-05-30T18:55:40.355Z,20.30
2019-05-30T18:58:09.077Z,20.30
2019-05-30T19:00:37.777Z,20.30
2019-05-30T19:03:06.627Z,20.30
2019-05-30T19:05:35.311Z,20.20
2019-05-30T19:08:04.000Z,20.20
2019-05-30T19:10:34.207Z,20.20
2019-05-30T19:13:03.163Z,20.20
2019-05-30T19:15:33.030Z,20.10
2019-05-30T19:18:02.274Z,19.90
2019-05-30T19:20:31.839Z,20.00
2019-05-30T19:23:00.714Z,19.90
2019-05-30T19:25:29.457Z,19.80
2019-05-30T19:27:58.194Z,19.80
2019-05-30T19:30:26.911Z,19.80
2019-05-30T19:32:55.571Z,19.60
2019-05-30T19:35:24.333Z,19.60
2019-05-30T19:37:53.038Z,19.40
2019-05-30T19:40:24.730Z,19.40
2019-05-30T19:42:52.076Z,19.30
2019-05-30T19:45:20.755Z,19.30
2019-05-30T19:47:49.606Z,19.30
2019-05-30T19:50:18.282Z,19.30
2019-05-30T19:52:47.110Z,19.30
2019-05-30T19:55:15.914Z,19.30
2019-05-30T19:57:44.600Z,19.20
2019-05-30T20:00:13.295Z,19.10
2019-05-30T20:02:42.008Z,19.10
2019-05-30T20:05:10.702Z,19.00
2019-05-30T20:07:40.791Z,18.90
2019-05-30T20:10:09.775Z,18.90
2019-05-30T20:12:39.078Z,18.90
2019-05-30T20:15:12.231Z,18.90
2019-05-30T20:17:41.869Z,18.80
2019-05-30T20:20:11.667Z,18.70
2019-05-30T20:22:40.346Z,18.60
2019-05-30T20:25:09.132Z,18.50
2019-05-30T20:27:38.999Z,18.30
2019-05-30T20:30:09.970Z,18.20
2019-05-30T20:32:38.918Z,18.10
2019-05-30T20:35:07.768Z,18.00
2019-05-30T20:37:36.767Z,18.00
2019-05-30T20:40:08.060Z,17.80
2019-05-30T20:42:36.857Z,17.80
2019-05-30T20:45:09.924Z,17.70
2019-05-30T20:47:38.845Z,17.60
2019-05-30T20:50:09.852Z,17.60
2019-05-30T20:52:41.511Z,17.60
2019-05-30T20:55:08.924Z,17.50
2019-05-30T20:57:38.355Z,17.40
2019-05-30T21:00:09.210Z,17.40
2019-05-30T21:02:39.069Z,17.30
2019-05-30T21:05:07.966Z,17.20
2019-05-30T21:07:37.680Z,17.10
2019-05-30T21:10:07.068Z,17.10
2019-05-30T21:12:39.272Z,17.10
2019-05-30T21:15:08.112Z,17.00
2019-05-30T21:17:37.744Z,17.00
2019-05-30T21:20:11.338Z,16.90
2019-05-30T21:22:40.198Z,16.80
2019-05-30T21:25:09.482Z,16.80
2019-05-30T21:27:39.043Z,16.80
2019-05-30T21:30:08.428Z,16.80
2019-05-30T21:32:37.680Z,16.70
2019-05-30T21:35:07.603Z,16.60
2019-05-30T21:37:37.636Z,16.60
2019-05-30T21:40:07.169Z,16.60
2019-05-30T21:42:35.919Z,16.50
2019-05-30T21:45:10.852Z,16.50
2019-05-30T21:47:40.653Z,16.40
2019-05-30T21:50:09.625Z,16.30
2019-05-30T21:52:39.366Z,16.30
2019-05-30T21:55:08.318Z,16.20
2019-05-30T21:57:37.054Z,16.20
2019-05-30T22:00:09.214Z,16.20
2019-05-30T22:02:37.896Z,16.10
2019-05-30T22:05:06.644Z,16.00
2019-05-30T22:07:35.326Z,16.00
2019-05-30T22:10:04.210Z,16.00
2019-05-30T22:12:32.922Z,15.90
2019-05-30T22:15:01.617Z,15.90
2019-05-30T22:17:30.355Z,15.80
2019-05-30T22:19:59.037Z,15.80
2019-05-30T22:22:27.705Z,15.80
2019-05-30T22:24:56.415Z,15.70
2019-05-30T22:27:25.112Z,15.60
2019-05-30T22:29:53.854Z,15.70
2019-05-30T22:32:22.533Z,15.60
2019-05-30T22:34:51.306Z,15.60
2019-05-30T22:37:20.019Z,15.60
2019-05-30T22:39:48.978Z,15.60
2019-05-30T22:42:17.772Z,15.50
2019-05-30T22:44:46.448Z,15.50
2019-05-30T22:47:15.130Z,15.40
2019-05-30T22:49:44.651Z,15.40
2019-05-30T22:52:13.478Z,15.30
2019-05-30T22:54:42.156Z,15.30
2019-05-30T22:57:10.888Z,15.30
2019-05-30T22:59:39.550Z,15.20
2019-05-30T23:02:08.329Z,15.20
2019-05-30T23:04:37.002Z,15.20
2019-05-30T23:07:05.677Z,15.10
2019-05-30T23:09:34.384Z,15.00
2019-05-30T23:12:03.066Z,15.00
2019-05-30T23:14:31.815Z,15.00
2019-05-30T23:17:00.498Z,14.90
2019-05-30T23:19:29.179Z,14.90
2019-05-30T23:21:57.894Z,14.90
2019-05-30T23:24:26.575Z,14.90
2019-05-30T23:26:55.860Z,14.90
2019-05-30T23:29:24.695Z,14.80
2019-05-30T23:31:54.113Z,14.80
2019-05-30T23:34:22.933Z,14.80
2019-05-30T23:36:52.444Z,14.80
2019-05-30T23:39:21.350Z,14.80
2019-05-30T23:41:51.036Z,14.80
2019-05-30T23:44:19.842Z,14.80
2019-05-30T23:46:49.330Z,14.80
2019-05-30T23:49:18.174Z,14.70
2019-05-30T23:51:46.855Z,14.70
2019-05-30T23:54:15.564Z,14.70
2019-05-30T23:56:44.242Z,14.70
2019-05-30T23:59:12.980Z,14.60
